Time;durP1;ratioP1;P1;durP2;ratioP2;P2;SDS_P1;SDS_P2;PMS_P1;PMS_P2;Temp;Humidity;BMP_temperature;BMP_pressure;BME280_temperature;BME280_humidity;BME280_pressure;Samples;Min_cycle;Max_cycle;Signal;HPM_P1;HPM_P2
2022/09/07 00:01:20;;;;;;;5.32;2.00;;;;;;;24.48;53.33;101261.66;4967117;28;20026;-66
2022/09/07 00:03:46;;;;;;;5.90;2.45;;;;;;;24.42;53.00;101264.97;4974154;28;20113;-64
2022/09/07 00:06:12;;;;;;;4.13;1.92;;;;;;;24.44;52.90;101265.66;4971936;28;20026;-64
2022/09/07 00:08:39;;;;;;;4.40;1.95;;;;;;;24.44;52.92;101247.84;4967373;28;20383;-66
2022/09/07 00:11:09;;;;;;;4.22;1.80;;;;;;;24.41;53.26;101240.16;4970276;28;20047;-65
2022/09/07 00:13:37;;;;;;;3.80;2.00;;;;;;;24.38;52.94;101223.66;4962196;28;20046;-64
2022/09/07 00:16:11;;;;;;;4.72;1.70;;;;;;;24.38;52.75;101236.97;4962257;28;20121;-63
2022/09/07 00:18:37;;;;;;;2.95;1.42;;;;;;;24.39;53.27;101230.66;4967501;28;20035;-65
2022/09/07 00:21:05;;;;;;;3.30;1.50;;;;;;;24.38;52.55;101237.81;4972525;28;20038;-65
2022/09/07 00:23:32;;;;;;;3.83;1.75;;;;;;;24.36;53.07;101236.31;4974534;28;20031;-64
2022/09/07 00:26:06;;;;;;;3.83;1.80;;;;;;;24.32;52.59;101226.94;4979620;28;20038;-66
2022/09/07 00:28:31;;;;;;;;;;;;;;;24.30;53.04;101227.09;4984621;28;20121;-65
2022/09/07 00:30:57;;;;;;;4.10;1.77;;;;;;;24.26;52.95;101231.09;4969013;28;20441;-64
2022/09/07 00:33:22;;;;;;;4.55;1.60;;;;;;;24.26;52.90;101233.75;4978590;28;20050;-65
2022/09/07 00:35:48;;;;;;;4.07;1.83;;;;;;;24.27;52.45;101230.94;4976967;28;20442;-65
2022/09/07 00:38:13;;;;;;;3.78;1.77;;;;;;;24.23;52.46;101220.75;4971815;28;20057;-65
2022/09/07 00:40:38;;;;;;;3.50;1.75;;;;;;;24.24;52.99;101225.91;4976804;28;20030;-64
2022/09/07 00:43:05;;;;;;;4.43;1.77;;;;;;;24.21;52.76;101212.91;4985016;28;20034;-65
2022/09/07 00:45:30;;;;;;;4.10;1.42;;;;;;;24.20;52.67;101199.75;4980496;28;20035;-64
2022/09/07 00:47:55;;;;;;;4.28;1.70;;;;;;;24.23;52.67;101192.28;4969614;28;20390;-65
2022/09/07 00:50:29;;;;;;;3.97;1.60;;;;;;;24.21;52.49;101188.09;4981842;28;20670;-64
2022/09/07 00:53:03;;;;;;;3.20;1.65;;;;;;;24.19;52.74;101179.44;4972682;28;20177;-65
2022/09/07 00:55:31;;;;;;;3.30;1.60;;;;;;;24.19;52.49;101177.59;4972822;28;20030;-64
2022/09/07 00:57:58;;;;;;;3.75;1.63;;;;;;;24.16;52.30;101172.56;4976886;28;20598;-64
2022/09/07 01:00:23;;;;;;;4.25;1.67;;;;;;;24.17;52.57;101174.25;4974202;28;20077;-64
2022/09/07 01:02:52;;;;;;;4.15;1.95;;;;;;;24.16;52.39;101171.75;4978811;28;20422;-65
2022/09/07 01:05:48;;;;;;;4.30;1.65;;;;;;;24.17;52.17;101187.56;4977198;28;20030;-64
2022/09/07 01:08:14;;;;;;;4.30;1.88;;;;;;;24.13;52.41;101188.03;4972062;28;20034;-65
2022/09/07 01:10:39;;;;;;;4.32;1.95;;;;;;;24.14;52.25;101189.72;4965792;28;20041;-65
2022/09/07 01:13:05;;;;;;;3.97;1.75;;;;;;;24.13;52.71;101182.72;4977232;28;20031;-64
2022/09/07 01:15:43;;;;;;;3.53;1.40;;;;;;;24.09;52.14;101179.53;4971873;28;20050;-66
2022/09/07 01:18:20;;;;;;;3.25;1.60;;;;;;;24.07;52.52;101184.19;4981151;28;20034;-65
2022/09/07 01:21:07;;;;;;;4.65;2.17;;;;;;;24.09;52.63;101188.34;4971046;28;20681;-65
2022/09/07 01:23:43;;;;;;;4.95;2.00;;;;;;;24.05;52.42;101188.81;4978255;28;20038;-65
2022/09/07 01:26:30;;;;;;;3.50;1.50;;;;;;;24.08;52.38;101188.50;4976353;28;20034;-65
2022/09/07 01:29:09;;;;;;;4.30;1.40;;;;;;;23.98;52.21;101169.97;4970854;28;20070;-64
2022/09/07 01:32:13;;;;;;;2.72;1.42;;;;;;;24.04;52.63;101185.31;4976146;28;20771;-65
2022/09/07 01:34:42;;;;;;;3.53;1.60;;;;;;;24.00;52.49;101185.78;4933986;29;20050;-64
2022/09/07 01:37:29;;;;;;;3.65;1.70;;;;;;;24.02;52.61;101189.13;4932144;28;20056;-64
2022/09/07 01:40:00;;;;;;;3.97;1.67;;;;;;;24.02;52.15;101192.63;4951072;28;20050;-65
2022/09/07 01:42:42;;;;;;;3.72;1.60;;;;;;;24.01;52.21;101201.59;4973434;28;20049;-65
2022/09/07 01:45:12;;;;;;;3.78;1.58;;;;;;;24.00;52.07;101191.13;4973888;28;20019;-64
2022/09/07 01:47:40;;;;;;;5.10;1.60;;;;;;;24.00;52.07;101186.63;4973282;28;20026;-65
2022/09/07 01:50:17;;;;;;;2.83;1.50;;;;;;;24.00;52.22;101191.13;4975127;28;20816;-63
2022/09/07 01:52:50;;;;;;;4.70;1.70;;;;;;;23.99;52.65;101186.75;4975706;28;20387;-64
2022/09/07 01:55:23;;;;;;;3.60;1.65;;;;;;;23.95;52.63;101180.94;4975751;28;20053;-64
2022/09/07 01:57:57;;;;;;;4.20;1.80;;;;;;;23.98;52.44;101196.59;4978316;28;20038;-64
2022/09/07 02:00:23;;;;;;;3.80;1.80;;;;;;;23.94;52.17;101186.41;4977380;28;20474;-65
2022/09/07 02:03:13;;;;;;;3.30;1.70;;;;;;;23.96;52.49;101192.41;4973421;28;20829;-63
2022/09/07 02:05:48;;;;;;;3.95;1.50;;;;;;;23.95;52.51;101183.59;4968752;28;20392;-64
2022/09/07 02:08:41;;;;;;;3.30;1.58;;;;;;;23.95;52.27;101188.91;4977859;28;20054;-65
2022/09/07 02:11:18;;;;;;;3.85;1.70;;;;;;;23.85;52.09;101164.22;4969744;28;20157;-65
2022/09/07 02:13:59;;;;;;;3.85;1.52;;;;;;;23.93;52.29;101179.44;4978812;28;20049;-65
2022/09/07 02:16:27;;;;;;;3.05;1.58;;;;;;;23.92;52.27;101189.22;4974024;28;20038;-65
2022/09/07 02:19:01;;;;;;;2.80;1.40;;;;;;;23.91;52.10;101182.25;4969984;28;20498;-66
2022/09/07 02:21:40;;;;;;;3.38;1.60;;;;;;;23.90;52.52;101178.72;4978723;28;20048;-65
2022/09/07 02:24:15;;;;;;;3.55;1.50;;;;;;;23.89;51.98;101181.53;4977119;28;20121;-64
2022/09/07 02:26:46;;;;;;;2.90;1.30;;;;;;;23.88;52.01;101186.03;4971399;28;20038;-65
2022/09/07 02:29:11;;;;;;;4.20;1.60;;;;;;;23.87;52.18;101183.53;4974597;28;20570;-65
2022/09/07 02:31:36;;;;;;;3.13;1.50;;;;;;;23.72;52.14;101162.75;4970304;28;20066;-65
2022/09/07 02:34:02;;;;;;;2.90;1.35;;;;;;;23.84;51.81;101175.84;4977722;28;20607;-64
2022/09/07 02:36:35;;;;;;;2.85;1.35;;;;;;;23.84;52.05;101178.50;4973503;28;20200;-64
2022/09/07 02:39:00;;;;;;;3.42;1.55;;;;;;;23.81;52.27;101176.13;4975306;28;20062;-64
2022/09/07 02:41:34;;;;;;;3.85;1.60;;;;;;;23.84;51.75;101182.00;4975337;28;20062;-65
2022/09/07 02:44:00;;;;;;;;;;;;;;;23.83;51.76;101185.66;4977157;28;20023;-65
2022/09/07 02:46:50;;;;;;;3.60;1.58;;;;;;;23.83;51.67;101188.34;4966535;28;19916;-65
2022/09/07 02:49:31;;;;;;;4.00;1.50;;;;;;;23.79;51.72;101176.28;4971029;28;20115;-65
2022/09/07 02:52:11;;;;;;;4.05;1.80;;;;;;;23.80;51.73;101177.09;4965970;28;20031;-65
2022/09/07 02:54:58;;;;;;;4.60;1.65;;;;;;;23.80;51.99;101180.63;4975711;28;20450;-64
2022/09/07 02:58:00;;;;;;;4.32;1.75;;;;;;;23.81;51.74;101186.78;4981534;28;20034;-65
2022/09/07 03:00:32;;;;;;;4.30;1.60;;;;;;;23.78;52.05;101182.59;4976850;28;20057;-65
2022/09/07 03:03:03;;;;;;;3.75;1.58;;;;;;;23.81;51.81;101189.44;4967785;28;20027;-63
2022/09/07 03:05:41;;;;;;;2.97;1.40;;;;;;;23.77;52.00;101188.09;4982113;28;20062;-64
2022/09/07 03:08:20;;;;;;;3.25;1.60;;;;;;;23.79;52.13;101186.09;4982369;28;20037;-64
2022/09/07 03:10:47;;;;;;;2.50;1.35;;;;;;;23.78;51.88;101190.56;4971736;28;20038;-64
2022/09/07 03:13:20;;;;;;;3.58;1.35;;;;;;;23.76;52.04;101184.56;4963056;28;20383;-65
2022/09/07 03:15:45;;;;;;;4.32;1.63;;;;;;;23.77;51.82;101186.25;4965173;28;20031;-65
2022/09/07 03:18:11;;;;;;;3.97;1.73;;;;;;;23.75;52.24;101180.25;4962919;28;20046;-64
2022/09/07 03:20:36;;;;;;;3.10;1.40;;;;;;;23.77;52.48;101167.63;4963029;28;20314;-64
2022/09/07 03:23:02;;;;;;;4.35;1.70;;;;;;;23.77;52.28;101170.28;4963058;28;20349;-64
2022/09/07 03:25:27;;;;;;;2.85;1.40;;;;;;;23.72;52.30;101160.09;4974508;28;20542;-65
2022/09/07 03:27:52;;;;;;;3.53;1.43;;;;;;;23.77;52.15;101172.13;4974832;28;20030;-66
2022/09/07 03:30:17;;;;;;;2.97;1.57;;;;;;;23.71;52.13;101166.41;4962578;28;20043;-64
2022/09/07 03:32:43;;;;;;;3.33;1.63;;;;;;;23.72;52.17;101181.38;4962539;28;20932;-64
2022/09/07 03:35:09;;;;;;;3.33;1.65;;;;;;;23.74;52.44;101181.25;4962759;28;20034;-65
2022/09/07 03:37:35;;;;;;;3.47;1.40;;;;;;;23.70;52.55;101162.09;4972827;28;20034;-64
2022/09/07 03:40:02;;;;;;;2.35;1.20;;;;;;;23.71;52.60;101169.06;4982110;28;20104;-65
2022/09/07 03:42:27;;;;;;;2.97;1.42;;;;;;;23.73;52.55;101174.22;4981894;28;20034;-65
2022/09/07 03:44:52;;;;;;;4.07;1.70;;;;;;;23.69;52.60;101176.38;4981697;28;20034;-64
2022/09/07 03:47:17;;;;;;;3.43;1.63;;;;;;;23.71;52.17;101182.38;4963244;28;20114;-64
2022/09/07 03:49:43;;;;;;;3.50;1.60;;;;;;;23.76;52.63;101183.75;4969179;28;20149;-64
2022/09/07 03:52:09;;;;;;;3.33;1.40;;;;;;;23.73;52.32;101177.75;4962420;28;20034;-65
2022/09/07 03:54:34;;;;;;;3.55;1.42;;;;;;;23.74;52.06;101173.25;4970698;28;20065;-64
2022/09/07 03:56:59;;;;;;;3.10;1.50;;;;;;;23.70;52.32;101163.91;4965220;28;20038;-65
2022/09/07 03:59:24;;;;;;;3.83;1.50;;;;;;;23.68;52.04;101155.25;4965637;28;20038;-64
2022/09/07 04:01:50;;;;;;;3.47;1.60;;;;;;;23.68;52.38;101155.25;4965820;28;20109;-66
2022/09/07 04:04:15;;;;;;;3.45;1.60;;;;;;;23.70;52.01;101147.94;4978536;28;20030;-66
2022/09/07 04:06:40;;;;;;;2.83;1.40;;;;;;;23.71;52.23;101146.94;4984904;28;20030;-65
2022/09/07 04:09:10;;;;;;;3.33;1.60;;;;;;;23.71;52.20;101145.13;4984623;28;20026;-64
2022/09/07 04:11:35;;;;;;;3.50;1.45;;;;;;;23.70;52.15;101142.59;4985691;28;20026;-64
2022/09/07 04:14:00;;;;;;;3.45;1.35;;;;;;;23.70;52.32;101138.16;4972115;28;20026;-65
2022/09/07 04:16:26;;;;;;;3.45;1.90;;;;;;;23.66;52.44;101119.97;4966172;28;20467;-65
2022/09/07 04:18:55;;;;;;;2.80;1.40;;;;;;;23.65;52.17;101116.47;4973702;28;20038;-64
2022/09/07 04:21:24;;;;;;;3.08;1.50;;;;;;;23.70;52.19;101129.31;4965967;28;20050;-64
2022/09/07 04:23:50;;;;;;;3.83;1.70;;;;;;;23.68;52.08;101132.13;4975746;28;20394;-64
2022/09/07 04:26:21;;;;;;;2.78;1.38;;;;;;;23.64;52.33;101122.78;4975656;28;20026;-64
2022/09/07 04:28:46;;;;;;;2.53;1.50;;;;;;;23.65;52.20;101137.75;4973744;28;20085;-64
2022/09/07 04:31:14;;;;;;;2.95;1.50;;;;;;;23.67;51.85;101153.56;4977343;28;20047;-64
2022/09/07 04:33:40;;;;;;;3.35;1.60;;;;;;;23.64;51.83;101148.53;4966001;28;20081;-65
2022/09/07 04:36:07;;;;;;;3.60;1.50;;;;;;;23.64;51.97;101143.22;4974718;28;20074;-64
2022/09/07 04:38:32;;;;;;;2.65;1.45;;;;;;;23.65;52.50;101151.06;4965559;28;20027;-65
2022/09/07 04:41:26;;;;;;;3.58;1.67;;;;;;;23.65;52.36;101144.91;4965814;28;20118;-64
2022/09/07 04:43:54;;;;;;;3.80;1.45;;;;;;;23.62;52.26;101146.03;4973717;28;20056;-65
2022/09/07 04:46:28;;;;;;;4.35;1.83;;;;;;;23.60;51.90;101140.03;4969239;28;20037;-65
2022/09/07 04:48:58;;;;;;;3.40;1.75;;;;;;;23.57;52.22;101136.88;4973622;28;20038;-64
2022/09/07 04:51:27;;;;;;;2.63;1.55;;;;;;;23.64;52.43;101148.53;4984846;28;20045;-65
2022/09/07 04:53:56;;;;;;;3.10;1.60;;;;;;;23.55;52.29;101137.84;4984427;28;20113;-65
2022/09/07 04:56:22;;;;;;;4.03;1.58;;;;;;;23.63;52.23;101146.91;4969677;28;20057;-65
2022/09/07 04:58:48;;;;;;;3.40;1.50;;;;;;;23.58;52.41;101144.69;4984720;28;20153;-64
2022/09/07 05:01:16;;;;;;;3.83;1.90;;;;;;;23.63;52.05;101147.72;4970525;28;20479;-65
2022/09/07 05:03:43;;;;;;;4.00;1.70;;;;;;;23.64;51.93;101146.75;4965291;28;20038;-66
2022/09/07 05:06:09;;;;;;;2.97;1.58;;;;;;;23.63;52.40;101139.75;4965364;28;20732;-65
2022/09/07 05:08:46;;;;;;;3.75;1.65;;;;;;;23.62;52.47;101138.06;4965116;28;20054;-64
2022/09/07 05:11:13;;;;;;;3.30;1.80;;;;;;;23.58;52.50;101125.25;4971823;28;20031;-65
2022/09/07 05:13:39;;;;;;;3.72;1.80;;;;;;;23.62;51.95;101130.06;4973714;28;20034;-65
2022/09/07 05:16:10;;;;;;;4.10;1.60;;;;;;;23.60;52.28;101129.41;4977135;28;20049;-64
2022/09/07 05:18:36;;;;;;;4.10;1.95;;;;;;;23.63;52.35;101133.59;4984499;28;20034;-64
2022/09/07 05:21:14;;;;;;;3.47;1.70;;;;;;;23.64;52.30;101136.09;4964694;28;20034;-65
2022/09/07 05:23:40;;;;;;;3.42;1.80;;;;;;;23.63;51.97;101144.22;4964630;28;20038;-65
2022/09/07 05:26:06;;;;;;;5.88;1.95;;;;;;;23.63;51.86;101141.56;4965161;28;20027;-64
2022/09/07 05:28:33;;;;;;;3.50;1.80;;;;;;;23.59;51.83;101138.38;4965065;28;20031;-65
2022/09/07 05:31:07;;;;;;;3.60;1.85;;;;;;;23.60;52.03;101139.22;4977264;28;20078;-66
2022/09/07 05:33:32;;;;;;;4.55;2.00;;;;;;;23.60;52.04;101139.22;4964458;28;20027;-66
2022/09/07 05:35:58;;;;;;;2.83;1.45;;;;;;;23.57;51.99;101132.38;4964404;28;20030;-64
2022/09/07 05:38:24;;;;;;;3.55;1.77;;;;;;;23.59;51.83;101143.72;4976861;28;20034;-65
2022/09/07 05:40:50;;;;;;;4.20;2.10;;;;;;;23.54;52.23;101136.19;4964537;28;20181;-64
2022/09/07 05:43:15;;;;;;;5.38;1.77;;;;;;;23.59;51.91;101142.84;4964339;28;20077;-66
2022/09/07 05:45:40;;;;;;;5.47;2.10;;;;;;;23.59;51.58;101146.38;4964492;28;20047;-63
2022/09/07 05:48:06;;;;;;;3.30;2.00;;;;;;;23.59;51.83;101146.38;4979109;28;20703;-65
2022/09/07 05:50:31;;;;;;;4.20;2.20;;;;;;;23.59;52.31;101145.50;4981157;28;20038;-64
2022/09/07 05:52:57;;;;;;;3.72;1.90;;;;;;;23.56;52.15;101141.34;4980504;28;20133;-65
2022/09/07 05:55:23;;;;;;;3.17;1.73;;;;;;;23.57;52.17;101152.81;4983725;28;20223;-68
2022/09/07 05:57:48;;;;;;;4.88;2.85;;;;;;;23.58;52.47;101150.00;4984060;28;20379;-74
2022/09/07 06:00:14;;;;;;;4.35;2.10;;;;;;;23.48;52.44;101160.75;4964718;28;20089;-66
2022/09/07 06:02:39;;;;;;;3.95;1.67;;;;;;;23.49;52.89;101167.72;4964376;28;20475;-67
2022/09/07 06:05:05;;;;;;;3.78;1.90;;;;;;;23.55;52.76;101163.63;4963822;28;20058;-66
2022/09/07 06:07:30;;;;;;;4.35;1.75;;;;;;;23.58;52.70;101162.50;4963923;28;20022;-65
2022/09/07 06:09:56;;;;;;;3.47;1.88;;;;;;;23.64;52.47;101170.69;4963866;28;20375;-68
2022/09/07 06:12:21;;;;;;;5.93;2.07;;;;;;;23.63;52.76;101157.53;4964481;28;20073;-67
2022/09/07 06:14:46;;;;;;;4.90;1.70;;;;;;;23.67;52.30;101167.72;4963946;28;20269;-67
2022/09/07 06:17:11;;;;;;;6.63;2.00;;;;;;;23.65;52.29;101158.22;4975874;28;20264;-67
2022/09/07 06:19:37;;;;;;;3.67;1.70;;;;;;;23.65;52.25;101159.03;4966206;28;20038;-67
2022/09/07 06:22:03;;;;;;;4.22;2.00;;;;;;;23.67;52.31;101161.53;4982943;28;20038;-68
2022/09/07 06:24:28;;;;;;;6.63;2.08;;;;;;;23.70;52.80;101170.06;4977056;28;20035;-67
2022/09/07 06:26:53;;;;;;;4.73;1.73;;;;;;;23.69;52.83;101175.56;4966564;28;21269;-67
2022/09/07 06:29:19;;;;;;;3.90;2.20;;;;;;;23.71;52.78;101179.72;4967182;28;20273;-66
2022/09/07 06:31:44;;;;;;;4.45;2.13;;;;;;;23.73;52.50;101187.53;4969925;28;20319;-67
2022/09/07 06:34:09;;;;;;;4.30;2.10;;;;;;;23.74;52.93;101181.25;4969604;28;20109;-66
2022/09/07 06:36:34;;;;;;;4.30;2.17;;;;;;;23.74;52.93;101175.91;4979089;28;20022;-67
2022/09/07 06:39:00;;;;;;;4.87;2.37;;;;;;;23.79;53.10;101178.13;4980047;28;20041;-67
2022/09/07 06:41:27;;;;;;;3.97;2.28;;;;;;;23.72;53.01;101172.59;4976098;28;20275;-68
2022/09/07 06:43:54;;;;;;;5.35;2.50;;;;;;;23.80;52.79;101183.28;4973624;28;20534;-65
2022/09/07 06:46:19;;;;;;;4.50;2.20;;;;;;;23.81;52.78;101182.28;4982745;28;20126;-66
2022/09/07 06:48:45;;;;;;;4.30;2.33;;;;;;;23.84;53.13;101181.19;4982547;28;20121;-67
2022/09/07 06:51:19;;;;;;;5.03;2.40;;;;;;;23.86;52.94;101182.72;4973958;28;20043;-67
2022/09/07 06:53:46;;;;;;;4.50;2.33;;;;;;;23.87;53.26;101186.19;4970783;28;20177;-69
2022/09/07 06:56:16;;;;;;;3.95;2.20;;;;;;;23.92;53.13;101193.72;4980951;28;20046;-67
2022/09/07 06:58:41;;;;;;;4.53;2.33;;;;;;;23.93;52.67;101190.06;4982435;28;20061;-67
2022/09/07 07:01:15;;;;;;;5.18;2.78;;;;;;;23.95;53.06;101190.75;4974916;28;20035;-67
2022/09/07 07:03:41;;;;;;;5.15;2.42;;;;;;;23.97;53.11;101199.41;4980916;28;20034;-68
2022/09/07 07:06:07;;;;;;;4.65;2.85;;;;;;;23.98;53.27;101195.75;4972788;28;20038;-68
2022/09/07 07:08:32;;;;;;;7.13;2.65;;;;;;;24.01;53.08;101198.13;4973011;28;20042;-66
2022/09/07 07:11:03;;;;;;;6.25;2.58;;;;;;;24.02;53.21;101191.78;4967870;28;20104;-68
2022/09/07 07:13:29;;;;;;;5.43;2.97;;;;;;;24.07;53.06;101205.50;4975817;28;20027;-69
2022/09/07 07:16:09;;;;;;;5.47;3.08;;;;;;;24.06;53.43;101193.16;4978776;28;20050;-67
2022/09/07 07:18:35;;;;;;;5.95;3.17;;;;;;;24.07;52.93;101197.50;4980950;28;20089;-68
2022/09/07 07:21:02;;;;;;;6.07;3.20;;;;;;;24.02;52.98;101197.09;4982293;28;20030;-67
2022/09/07 07:23:28;;;;;;;4.78;2.97;;;;;;;24.07;53.16;101208.97;4976534;28;20809;-69
2022/09/07 07:25:53;;;;;;;6.15;2.97;;;;;;;24.03;53.11;101199.63;4970604;28;20044;-82
2022/09/07 07:28:18;;;;;;;6.73;3.43;;;;;;;24.02;53.32;101199.78;4971419;28;20026;-79
2022/09/07 07:30:43;;;;;;;7.07;3.63;;;;;;;24.02;53.84;101202.44;4979764;28;20342;-79
2022/09/07 07:33:09;;;;;;;6.40;3.50;;;;;;;24.08;53.57;101208.00;4970362;28;20172;-81
2022/09/07 07:35:34;;;;;;;6.95;4.00;;;;;;;24.09;53.17;101200.84;4973072;28;20292;-75
2022/09/07 07:38:00;;;;;;;7.33;4.93;;;;;;;24.19;53.45;101219.38;4971997;28;20120;-77
2022/09/07 07:40:26;;;;;;;9.88;7.88;;;;;;;24.11;53.99;101219.31;4980646;28;20315;-74
2022/09/07 07:42:51;;;;;;;8.15;4.95;;;;;;;24.15;53.95;101207.34;4968477;28;20031;-80
2022/09/07 07:45:17;;;;;;;8.48;4.82;;;;;;;24.20;53.44;101216.56;4970920;28;20529;-68
2022/09/07 07:47:42;;;;;;;8.50;5.15;;;;;;;24.17;53.54;101219.53;4970799;28;20042;-69
2022/09/07 07:50:08;;;;;;;6.13;3.97;;;;;;;24.19;53.29;101219.38;4976161;28;20026;-70
2022/09/07 07:52:35;;;;;;;9.13;4.35;;;;;;;24.20;53.18;101219.22;4971171;28;20062;-68
2022/09/07 07:55:01;;;;;;;5.70;4.00;;;;;;;24.20;53.42;101218.38;4973234;28;20026;-68
2022/09/07 07:57:27;;;;;;;8.48;4.15;;;;;;;24.25;53.02;101227.56;4962383;28;20123;-70
2022/09/07 07:59:53;;;;;;;13.32;4.07;;;;;;;24.24;53.35;101227.72;4962452;28;20051;-65
2022/09/07 08:02:18;;;;;;;10.20;6.43;;;;;;;24.24;53.26;101227.72;4962446;28;20034;-66
2022/09/07 08:04:44;;;;;;;8.00;5.50;;;;;;;24.16;53.36;101228.50;4962596;28;20031;-66
2022/09/07 08:07:10;;;;;;;7.73;4.50;;;;;;;24.19;53.44;101230.03;4962277;28;20050;-67
2022/09/07 08:09:40;;;;;;;7.13;4.50;;;;;;;24.15;53.53;101224.19;4962563;28;20367;-68
2022/09/07 08:12:07;;;;;;;5.57;4.18;;;;;;;24.18;53.30;101236.31;4962844;28;20352;-65
2022/09/07 08:14:35;;;;;;;6.22;3.88;;;;;;;24.18;53.74;101229.19;4963233;28;20471;-67
2022/09/07 08:17:00;;;;;;;6.72;4.18;;;;;;;24.17;53.23;101226.69;4963025;28;20027;-66
2022/09/07 08:19:25;;;;;;;7.22;4.03;;;;;;;24.17;53.34;101234.66;4974797;28;20085;-65
2022/09/07 08:21:51;;;;;;;7.17;4.00;;;;;;;24.20;53.30;101235.19;4981533;28;20066;-67
2022/09/07 08:24:17;;;;;;;5.22;3.40;;;;;;;24.18;53.49;101237.19;4975487;28;20286;-65
2022/09/07 08:26:42;;;;;;;8.37;3.80;;;;;;;24.22;53.04;101235.03;4962300;28;20030;-65
2022/09/07 08:29:07;;;;;;;6.90;4.20;;;;;;;24.21;53.36;101234.22;4964988;28;20093;-68
2022/09/07 08:31:32;;;;;;;8.17;4.93;;;;;;;24.20;53.71;101240.53;4981450;28;20065;-66
2022/09/07 08:33:58;;;;;;;5.80;4.03;;;;;;;24.22;53.58;101243.03;4979045;28;20823;-76
2022/09/07 08:36:24;;;;;;;7.90;3.83;;;;;;;24.16;53.81;101236.47;4972465;28;20264;-75
2022/09/07 08:38:49;;;;;;;6.20;3.53;;;;;;;24.21;54.00;101238.69;4974877;28;20034;-75
2022/09/07 08:41:56;;;;;;;6.70;3.60;;;;;;;24.29;54.16;101252.03;4971971;28;20113;-78
2022/09/07 08:44:30;;;;;;;6.30;3.45;;;;;;;24.35;53.93;101245.28;4974389;28;20032;-79
2022/09/07 08:47:06;;;;;;;8.30;3.70;;;;;;;24.39;53.66;101244.81;4983549;28;20046;-78
2022/09/07 08:49:53;;;;;;;6.95;3.22;;;;;;;24.41;53.57;101229.50;4972857;28;20101;-74
2022/09/07 08:52:31;;;;;;;5.40;3.10;;;;;;;24.62;53.82;101249.63;4981915;28;20038;-76
2022/09/07 08:55:13;;;;;;;6.00;2.95;;;;;;;24.63;53.67;101238.00;4965062;28;20031;-76
2022/09/07 08:57:44;;;;;;;7.05;3.40;;;;;;;24.73;53.16;101244.03;4963201;28;20475;-78
2022/09/07 09:00:13;;;;;;;6.90;3.25;;;;;;;24.81;53.25;101252.06;4972940;28;20034;-79
2022/09/07 09:02:38;;;;;;;6.30;3.30;;;;;;;24.83;52.74;101243.91;4980023;28;20038;-78
2022/09/07 09:05:13;;;;;;;4.88;2.65;;;;;;;24.84;52.95;101247.44;4983682;28;20045;-80
2022/09/07 09:07:59;;;;;;;4.75;2.90;;;;;;;24.92;52.64;101248.28;4972635;28;20041;-77
2022/09/07 09:10:35;;;;;;;5.90;3.15;;;;;;;24.92;52.63;101247.47;4964953;28;20030;-76
2022/09/07 09:13:15;;;;;;;8.32;3.00;;;;;;;25.00;52.74;101252.81;4964764;28;20027;-73
2022/09/07 09:15:58;;;;;;;6.03;3.00;;;;;;;24.96;52.50;101230.97;4969008;28;20031;-75
2022/09/07 09:18:46;;;;;;;5.82;3.05;;;;;;;25.06;52.21;101240.69;4963723;28;20027;-81
2022/09/07 09:21:17;;;;;;;4.75;2.60;;;;;;;25.13;52.32;101244.34;4968713;28;20100;-74
2022/09/07 09:23:46;;;;;;;6.07;2.67;;;;;;;25.19;52.00;101242.91;4979918;28;20030;-74
2022/09/07 09:26:19;;;;;;;4.43;2.70;;;;;;;25.17;51.88;101238.53;4978752;28;20062;-76
2022/09/07 09:28:44;;;;;;;6.53;2.70;;;;;;;25.24;51.77;101244.06;4981360;28;20042;-81
2022/09/07 09:31:17;;;;;;;6.25;2.45;;;;;;;25.29;52.02;101248.94;4970129;28;21256;-76
2022/09/07 09:33:42;;;;;;;5.97;2.33;;;;;;;25.25;52.05;101244.91;4974546;28;20122;-76
2022/09/07 09:36:24;;;;;;;4.03;2.10;;;;;;;25.27;51.94;101238.41;4964233;28;20928;-78
2022/09/07 09:38:50;;;;;;;4.97;2.15;;;;;;;25.31;51.58;101245.13;4965836;28;20039;-77
2022/09/07 09:41:15;;;;;;;4.72;2.08;;;;;;;25.35;51.73;101248.28;4970805;28;20034;-79
2022/09/07 09:43:51;;;;;;;7.03;2.30;;;;;;;25.35;51.38;101248.28;4983303;28;20034;-71
2022/09/07 09:46:27;;;;;;;4.18;2.00;;;;;;;25.33;51.45;101244.97;4964299;28;20436;-71
2022/09/07 09:49:15;;;;;;;3.80;2.25;;;;;;;25.31;51.80;101244.28;4981308;28;20089;-73
2022/09/07 09:51:44;;;;;;;4.18;1.95;;;;;;;25.33;51.38;101250.31;4980205;28;20045;-74
2022/09/07 09:54:21;;;;;;;4.07;1.95;;;;;;;25.37;51.65;101256.97;4971201;28;20038;-74
2022/09/07 09:56:48;;;;;;;4.18;1.80;;;;;;;25.34;51.67;101249.28;4981144;28;20671;-75
2022/09/07 09:59:16;;;;;;;4.82;2.10;;;;;;;25.41;51.18;101252.16;4973089;28;20030;-76
2022/09/07 10:01:44;;;;;;;4.75;1.83;;;;;;;25.36;51.28;101239.31;4977673;28;20049;-76
2022/09/07 10:04:33;;;;;;;3.95;1.90;;;;;;;25.46;51.30;101250.66;4979771;28;20092;-75
2022/09/07 10:07:21;;;;;;;5.65;2.08;;;;;;;25.48;51.27;101247.81;4969545;28;20345;-79
2022/09/07 10:09:51;;;;;;;2.95;1.58;;;;;;;25.49;50.57;101236.16;4976873;28;20030;-74
2022/09/07 10:12:31;;;;;;;5.10;2.17;;;;;;;25.38;50.90;101215.13;4972662;28;20041;-75
2022/09/07 10:14:58;;;;;;;4.45;1.80;;;;;;;25.47;50.80;101231.00;4975617;28;20030;-76
2022/09/07 10:17:34;;;;;;;3.50;1.67;;;;;;;25.47;50.76;101224.81;4973773;28;20038;-75
2022/09/07 10:20:14;;;;;;;4.72;1.80;;;;;;;25.47;50.88;101228.31;4974247;28;20081;-74
2022/09/07 10:22:42;;;;;;;3.97;1.95;;;;;;;25.47;51.04;101225.66;4979466;28;20089;-66
2022/09/07 10:25:29;;;;;;;6.38;2.03;;;;;;;25.45;50.96;101227.66;4971042;28;20117;-69
2022/09/07 10:28:12;;;;;;;4.88;1.80;;;;;;;25.38;48.48;101233.81;4971347;28;20045;-68
2022/09/07 10:30:54;;;;;;;6.65;1.90;;;;;;;25.32;47.75;101227.28;4968440;28;20125;-72
2022/09/07 10:33:31;;;;;;;5.10;1.45;;;;;;;25.19;48.42;101232.22;4967000;28;20160;-73
2022/09/07 10:36:09;;;;;;;5.07;1.65;;;;;;;25.09;50.16;101222.53;4961990;28;20371;-75
2022/09/07 10:38:43;;;;;;;6.45;1.80;;;;;;;25.03;49.88;101214.34;4969089;28;20401;-75
2022/09/07 10:41:10;;;;;;;3.33;1.52;;;;;;;25.01;50.28;101218.97;4982417;28;20042;-76
2022/09/07 10:43:44;;;;;;;5.93;1.70;;;;;;;25.02;50.13;101216.16;4982238;28;20430;-76
2022/09/07 10:46:12;;;;;;;5.88;1.48;;;;;;;25.05;50.14;101217.69;4980426;28;20134;-76
2022/09/07 10:48:55;;;;;;;7.20;1.60;;;;;;;25.11;49.88;101214.38;4968557;28;20069;-76
2022/09/07 10:51:36;;;;;;;6.93;1.92;;;;;;;25.13;48.79;101202.56;4975861;28;20034;-73
2022/09/07 10:54:18;;;;;;;6.32;1.83;;;;;;;25.16;49.36;101212.03;4976486;28;20026;-75
2022/09/07 10:56:56;;;;;;;4.13;1.45;;;;;;;25.07;48.64;101208.53;4969472;28;20045;-71
2022/09/07 10:59:43;;;;;;;7.10;1.77;;;;;;;25.06;49.32;101208.69;4981960;28;20049;-69
2022/09/07 11:02:41;;;;;;;6.30;1.40;;;;;;;25.01;50.44;101219.84;4971219;28;20022;-68
2022/09/07 11:05:25;;;;;;;5.20;1.45;;;;;;;24.90;50.34;101201.47;4965601;28;20034;-72
2022/09/07 11:08:15;;;;;;;5.05;1.80;;;;;;;24.93;50.26;101204.63;4967993;28;20038;-72
2022/09/07 11:10:56;;;;;;;5.20;1.83;;;;;;;24.92;49.98;101204.81;4972658;28;20039;-73
2022/09/07 11:13:27;;;;;;;4.85;1.58;;;;;;;24.97;50.11;101200.63;4964617;28;20523;-73
2022/09/07 11:16:27;;;;;;;5.40;1.70;;;;;;;24.96;50.21;101196.31;4971049;28;20030;-72
2022/09/07 11:19:10;;;;;;;5.07;1.52;;;;;;;24.97;49.50;101194.47;4967720;28;20046;-67
2022/09/07 11:21:41;;;;;;;5.10;1.58;;;;;;;24.96;49.81;101201.66;4967121;28;20042;-70
2022/09/07 11:24:26;;;;;;;6.03;1.83;;;;;;;24.99;50.08;101190.66;4969702;28;21301;-73
2022/09/07 11:26:55;;;;;;;8.48;2.00;;;;;;;24.98;50.39;101199.66;4981273;28;20034;-72
2022/09/07 11:29:26;;;;;;;4.80;1.85;;;;;;;25.03;50.41;101199.16;4969760;28;20053;-72
2022/09/07 11:32:01;;;;;;;5.00;1.60;;;;;;;25.01;49.74;101189.66;4972266;28;20054;-71
2022/09/07 11:34:34;;;;;;;3.60;1.40;;;;;;;25.03;50.33;101195.69;4968546;28;20122;-69
2022/09/07 11:37:37;;;;;;;4.50;1.57;;;;;;;25.02;50.02;101196.66;4971802;28;20034;-70
2022/09/07 11:40:22;;;;;;;4.43;1.50;;;;;;;25.01;50.09;101198.50;4971864;28;20068;-69
2022/09/07 11:43:19;;;;;;;5.03;1.40;;;;;;;25.01;50.00;101200.31;4974639;28;20038;-69
2022/09/07 11:45:50;;;;;;;4.28;1.40;;;;;;;25.01;49.99;101192.31;4968088;28;20061;-68